createdAt,value
2022-12-07T00:00:58.323Z,0.00
2022-12-07T00:01:58.386Z,0.00
2022-12-07T00:02:58.330Z,0.00
2022-12-07T00:03:58.277Z,0.00
2022-12-07T00:04:58.273Z,0.00
2022-12-07T00:05:58.278Z,0.00
2022-12-07T00:06:58.251Z,0.00
2022-12-07T00:07:58.306Z,0.00
2022-12-07T00:08:58.225Z,0.00
2022-12-07T00:09:58.309Z,0.00
2022-12-07T00:10:58.203Z,0.00
2022-12-07T00:11:58.405Z,0.00
2022-12-07T00:12:58.180Z,0.00
2022-12-07T00:13:58.175Z,0.00
2022-12-07T00:14:58.162Z,0.00
2022-12-07T00:15:58.153Z,0.00
2022-12-07T00:16:58.250Z,0.00
2022-12-07T00:17:58.171Z,0.00
2022-12-07T00:18:58.115Z,0.00
2022-12-07T00:19:58.269Z,0.00
2022-12-07T00:20:58.088Z,0.00
2022-12-07T00:21:58.102Z,0.00
2022-12-07T00:22:58.068Z,0.00
2022-12-07T00:23:58.092Z,0.00
2022-12-07T00:24:58.057Z,0.00
2022-12-07T00:25:58.072Z,0.00
2022-12-07T00:26:58.038Z,0.00
2022-12-07T00:27:58.028Z,0.00
2022-12-07T00:28:58.050Z,0.00
2022-12-07T00:29:58.073Z,0.00
2022-12-07T00:30:58.013Z,0.00
2022-12-07T00:31:58.039Z,0.00
2022-12-07T00:32:57.968Z,0.00
2022-12-07T00:33:57.953Z,0.00
2022-12-07T00:34:57.940Z,0.00
2022-12-07T00:35:57.954Z,0.00
2022-12-07T00:36:57.917Z,0.00
2022-12-07T00:37:57.909Z,0.00
2022-12-07T00:38:57.894Z,0.00
2022-12-07T00:39:58.013Z,0.00
2022-12-07T00:40:57.889Z,0.00
2022-12-07T00:41:57.874Z,0.00
2022-12-07T00:42:57.882Z,0.00
2022-12-07T00:43:57.843Z,0.00
2022-12-07T00:44:57.827Z,0.00
2022-12-07T00:45:57.926Z,0.00
2022-12-07T00:46:57.836Z,0.00
2022-12-07T00:47:57.794Z,0.00
2022-12-07T00:48:57.780Z,0.00
2022-12-07T00:49:57.778Z,0.00
2022-12-07T00:50:57.794Z,0.00
2022-12-07T00:51:57.750Z,0.00
2022-12-07T00:52:57.804Z,0.00
2022-12-07T00:53:57.730Z,0.00
2022-12-07T00:54:57.713Z,0.00
2022-12-07T00:55:57.727Z,0.00
2022-12-07T00:56:57.698Z,0.00
2022-12-07T00:57:57.691Z,0.00
2022-12-07T00:58:57.695Z,0.00
2022-12-07T00:59:57.747Z,0.00
2022-12-07T01:00:57.680Z,0.00
2022-12-07T01:01:57.723Z,0.00
2022-12-07T01:02:57.666Z,0.00
2022-12-07T01:03:57.622Z,0.00
2022-12-07T01:04:57.633Z,0.00
2022-12-07T01:05:57.603Z,0.00
2022-12-07T01:06:57.581Z,0.00
2022-12-07T01:07:57.603Z,0.00
2022-12-07T01:08:57.698Z,0.00
2022-12-07T01:09:57.558Z,0.00
2022-12-07T01:10:57.568Z,0.00
2022-12-07T01:11:57.610Z,0.00
2022-12-07T01:12:57.520Z,0.00
2022-12-07T01:13:57.506Z,0.00
2022-12-07T01:14:57.515Z,0.00
2022-12-07T01:15:57.495Z,0.00
2022-12-07T01:16:57.866Z,0.00
2022-12-07T01:17:57.474Z,0.00
2022-12-07T01:18:57.455Z,0.00
2022-12-07T01:19:57.459Z,0.00
2022-12-07T01:20:57.443Z,0.00
2022-12-07T01:21:57.426Z,0.00
2022-12-07T01:22:57.444Z,0.00
2022-12-07T01:23:57.397Z,0.00
2022-12-07T01:24:57.386Z,0.00
2022-12-07T01:25:57.373Z,0.00
2022-12-07T01:26:57.412Z,0.00
2022-12-07T01:27:57.352Z,0.00
2022-12-07T01:28:57.415Z,0.00
2022-12-07T01:29:57.342Z,0.00
2022-12-07T01:30:57.402Z,0.00
2022-12-07T01:31:57.305Z,0.00
2022-12-07T01:32:57.300Z,0.00
2022-12-07T01:33:57.298Z,0.00
2022-12-07T01:34:57.310Z,0.00
2022-12-07T01:35:57.284Z,0.00
2022-12-07T01:36:57.265Z,0.00
2022-12-07T01:37:57.297Z,0.00
2022-12-07T01:38:57.233Z,0.00
2022-12-07T01:39:57.217Z,0.00
2022-12-07T01:40:57.242Z,0.00
2022-12-07T01:41:57.207Z,0.00
2022-12-07T01:42:57.205Z,0.00
2022-12-07T01:43:57.171Z,0.00
2022-12-07T01:44:57.205Z,0.00
2022-12-07T01:45:57.254Z,0.00
2022-12-07T01:46:57.186Z,0.00
2022-12-07T01:47:57.128Z,0.00
2022-12-07T01:48:57.126Z,0.00
2022-12-07T01:49:57.108Z,0.00
2022-12-07T01:50:57.120Z,0.00
2022-12-07T01:51:57.088Z,0.00
2022-12-07T01:52:57.100Z,0.00
2022-12-07T01:53:57.064Z,0.00
2022-12-07T01:54:57.104Z,0.00
2022-12-07T01:55:57.056Z,0.00
2022-12-07T01:56:57.034Z,0.00
2022-12-07T01:57:57.055Z,0.00
2022-12-07T01:58:57.027Z,0.00
2022-12-07T01:59:57.007Z,0.00
2022-12-07T02:00:56.991Z,0.00
2022-12-07T02:01:57.096Z,0.00
2022-12-07T02:02:57.069Z,0.00
2022-12-07T02:03:56.988Z,0.00
2022-12-07T02:04:56.945Z,0.00
2022-12-07T02:05:56.941Z,0.00
2022-12-07T02:06:56.933Z,0.00
2022-12-07T02:07:57.016Z,0.00
2022-12-07T02:08:56.896Z,0.00
2022-12-07T02:09:56.914Z,0.00
2022-12-07T02:10:56.873Z,0.00
2022-12-07T02:11:56.869Z,0.00
2022-12-07T02:12:56.859Z,0.00
2022-12-07T02:13:56.843Z,0.00
2022-12-07T02:14:56.830Z,0.00
2022-12-07T02:15:56.919Z,0.00
2022-12-07T02:16:56.803Z,0.00
2022-12-07T02:17:56.808Z,0.00
2022-12-07T02:18:56.851Z,0.00
2022-12-07T02:19:56.776Z,0.00
2022-12-07T02:20:56.759Z,0.00
2022-12-07T02:21:56.785Z,0.00
2022-12-07T02:22:56.735Z,0.00
2022-12-07T02:23:56.732Z,0.00
2022-12-07T02:24:56.714Z,0.00
2022-12-07T02:25:56.730Z,0.00
2022-12-07T02:26:56.733Z,0.00
2022-12-07T02:27:56.710Z,0.00
2022-12-07T02:28:56.682Z,0.00
2022-12-07T02:29:56.667Z,0.00
2022-12-07T02:30:56.702Z,0.00
2022-12-07T02:31:56.645Z,0.00
2022-12-07T02:32:56.667Z,0.00
2022-12-07T02:33:56.630Z,0.00
2022-12-07T02:34:56.607Z,0.00
2022-12-07T02:35:56.610Z,0.00
2022-12-07T02:36:56.595Z,0.00
2022-12-07T02:37:56.608Z,0.00
2022-12-07T02:38:56.587Z,0.00
2022-12-07T02:39:56.586Z,0.00
2022-12-07T02:40:56.596Z,0.00
2022-12-07T02:41:56.535Z,0.00
2022-12-07T02:42:56.530Z,0.00
2022-12-07T02:43:56.567Z,0.00
2022-12-07T02:44:56.498Z,0.00
2022-12-07T02:45:56.592Z,0.00
2022-12-07T02:46:56.475Z,0.00
2022-12-07T02:47:56.481Z,0.00
2022-12-07T02:48:56.502Z,0.00
2022-12-07T02:49:56.478Z,0.00
2022-12-07T02:50:56.431Z,0.00
2022-12-07T02:51:56.423Z,0.00
2022-12-07T02:52:56.416Z,0.00
2022-12-07T02:53:56.403Z,0.00
2022-12-07T02:54:56.389Z,0.00
2022-12-07T02:55:56.431Z,0.00
2022-12-07T02:56:56.378Z,0.00
2022-12-07T02:57:56.361Z,0.00
2022-12-07T02:58:56.351Z,0.00
2022-12-07T02:59:56.404Z,0.00
2022-12-07T03:00:56.336Z,0.00
2022-12-07T03:01:56.405Z,0.00
2022-12-07T03:02:56.366Z,0.00
2022-12-07T03:03:56.301Z,0.00
2022-12-07T03:04:56.290Z,0.00
2022-12-07T03:05:56.295Z,0.00
2022-12-07T03:06:56.257Z,0.00
2022-12-07T03:07:56.306Z,0.00
2022-12-07T03:08:56.233Z,0.00
2022-12-07T03:09:56.220Z,0.00
2022-12-07T03:10:56.215Z,0.00
2022-12-07T03:11:56.198Z,0.00
2022-12-07T03:12:56.229Z,0.00
2022-12-07T03:13:56.179Z,0.00
2022-12-07T03:14:56.173Z,0.00
2022-12-07T03:15:56.223Z,0.00
2022-12-07T03:16:56.148Z,0.00
2022-12-07T03:17:56.173Z,0.00
2022-12-07T03:18:56.181Z,0.00
2022-12-07T03:19:56.109Z,0.00
2022-12-07T03:20:56.097Z,0.00
2022-12-07T03:21:56.097Z,0.00
2022-12-07T03:22:56.098Z,0.00
2022-12-07T03:23:56.071Z,0.00
2022-12-07T03:24:56.078Z,0.00
2022-12-07T03:26:00.450Z,0.00
2022-12-07T03:26:56.032Z,0.00
2022-12-07T03:27:56.034Z,0.00
2022-12-07T03:28:56.025Z,0.00
2022-12-07T03:29:56.034Z,0.00
2022-12-07T03:30:56.125Z,0.00
2022-12-07T03:31:55.991Z,0.00
2022-12-07T03:32:55.965Z,0.00
2022-12-07T03:33:55.957Z,0.00
2022-12-07T03:34:55.940Z,0.00
2022-12-07T03:35:55.959Z,0.00
2022-12-07T03:36:55.945Z,0.00
2022-12-07T03:37:55.915Z,0.00
2022-12-07T03:38:55.909Z,0.00
2022-12-07T03:39:55.901Z,0.00
2022-12-07T03:40:55.883Z,0.00
2022-12-07T03:41:55.912Z,0.00
2022-12-07T03:42:55.861Z,0.00
2022-12-07T03:43:55.858Z,0.00
2022-12-07T03:44:55.838Z,0.00
2022-12-07T03:45:55.836Z,0.00
2022-12-07T03:46:55.880Z,0.00
2022-12-07T03:47:55.846Z,0.00
2022-12-07T03:48:55.804Z,0.00
2022-12-07T03:49:55.802Z,0.00
2022-12-07T03:50:55.777Z,0.00
2022-12-07T03:51:55.767Z,0.00
2022-12-07T03:52:55.818Z,0.00
2022-12-07T03:53:55.837Z,0.00
2022-12-07T03:54:55.722Z,0.00
2022-12-07T03:55:55.724Z,0.00
2022-12-07T03:56:55.700Z,0.00
2022-12-07T03:57:55.701Z,0.00
2022-12-07T03:58:55.700Z,0.00
2022-12-07T03:59:55.677Z,0.00
2022-12-07T04:00:55.660Z,0.00
2022-12-07T04:01:55.817Z,0.00
2022-12-07T04:02:55.697Z,0.00
2022-12-07T04:03:55.652Z,0.00
2022-12-07T04:04:55.619Z,0.00
2022-12-07T04:05:55.607Z,0.00
2022-12-07T04:06:55.590Z,0.00
2022-12-07T04:07:55.644Z,0.00
2022-12-07T04:08:55.604Z,0.00
2022-12-07T04:09:55.556Z,0.00
2022-12-07T04:10:55.562Z,0.00
2022-12-07T04:11:55.540Z,0.00
2022-12-07T04:12:55.528Z,0.00
2022-12-07T04:13:55.511Z,0.00
2022-12-07T04:14:55.529Z,0.00
2022-12-07T04:15:55.600Z,0.00
2022-12-07T04:16:55.484Z,0.00
2022-12-07T04:17:55.466Z,0.00
2022-12-07T04:18:55.464Z,0.00
2022-12-07T04:19:55.476Z,0.00
2022-12-07T04:20:55.440Z,0.00
2022-12-07T04:21:55.424Z,0.00
2022-12-07T04:22:55.416Z,0.00
2022-12-07T04:23:55.400Z,0.00
2022-12-07T04:24:55.393Z,0.00
2022-12-07T04:25:55.404Z,0.00
2022-12-07T04:26:55.372Z,0.00
2022-12-07T04:27:55.356Z,0.00
2022-12-07T04:28:55.349Z,0.00
2022-12-07T04:29:55.340Z,0.00
2022-12-07T04:30:55.529Z,0.00
2022-12-07T04:31:55.363Z,0.00
2022-12-07T04:32:55.304Z,0.00
2022-12-07T04:33:55.291Z,0.00
2022-12-07T04:34:55.926Z,0.00
2022-12-07T04:35:55.269Z,0.00
2022-12-07T04:36:55.293Z,0.00
2022-12-07T04:37:55.244Z,0.00
2022-12-07T04:38:55.251Z,0.00
2022-12-07T04:39:55.221Z,0.00
2022-12-07T04:40:55.215Z,0.00
2022-12-07T04:41:55.208Z,0.00
2022-12-07T04:42:55.215Z,0.00
2022-12-07T04:43:55.179Z,0.00
2022-12-07T04:44:55.173Z,0.00
2022-12-07T04:45:55.157Z,0.00
2022-12-07T04:46:55.243Z,0.00
2022-12-07T04:47:55.152Z,0.00
2022-12-07T04:48:55.129Z,0.00
2022-12-07T04:49:55.112Z,0.00
2022-12-07T04:50:55.105Z,0.00
2022-12-07T04:51:55.089Z,0.00
2022-12-07T04:52:55.085Z,0.00
2022-12-07T04:53:55.104Z,0.00
2022-12-07T04:54:55.060Z,0.00
2022-12-07T04:55:55.047Z,0.00
2022-12-07T04:56:55.036Z,0.00
2022-12-07T04:57:55.025Z,0.00
2022-12-07T04:58:55.025Z,0.00
2022-12-07T04:59:55.028Z,0.00
2022-12-07T05:00:55.045Z,0.00
2022-12-07T05:01:55.026Z,0.00
2022-12-07T05:02:54.975Z,0.00
2022-12-07T05:03:54.961Z,0.00
2022-12-07T05:04:54.954Z,0.00
2022-12-07T05:05:54.971Z,0.00
2022-12-07T05:06:54.932Z,0.00
2022-12-07T05:07:55.004Z,0.00
2022-12-07T05:08:54.907Z,0.00
2022-12-07T05:09:54.902Z,0.00
2022-12-07T05:10:54.886Z,0.00
2022-12-07T05:11:54.900Z,0.00
2022-12-07T05:12:54.863Z,0.00
2022-12-07T05:13:54.855Z,0.00
2022-12-07T05:14:54.859Z,0.00
2022-12-07T05:15:54.913Z,0.00
2022-12-07T05:16:54.852Z,0.00
2022-12-07T05:17:54.811Z,0.00
2022-12-07T05:18:54.794Z,0.00
2022-12-07T05:19:54.791Z,0.00
2022-12-07T05:20:54.770Z,0.00
2022-12-07T05:21:54.783Z,0.00
2022-12-07T05:22:54.772Z,0.00
2022-12-07T05:23:54.744Z,0.00
2022-12-07T05:24:54.731Z,0.00
2022-12-07T05:25:54.723Z,0.00
2022-12-07T05:26:54.705Z,0.00
2022-12-07T05:27:54.702Z,0.00
2022-12-07T05:28:55.158Z,0.00
2022-12-07T05:29:54.680Z,0.00
2022-12-07T05:30:59.690Z,0.00
2022-12-07T05:31:54.779Z,0.00
2022-12-07T05:32:54.642Z,0.00
2022-12-07T05:33:54.635Z,0.00
2022-12-07T05:34:54.639Z,0.00
2022-12-07T05:35:54.613Z,0.00
2022-12-07T05:36:54.605Z,0.00
2022-12-07T05:37:54.592Z,0.00
2022-12-07T05:38:54.573Z,0.00
2022-12-07T05:39:54.572Z,0.00
2022-12-07T05:40:54.576Z,0.00
2022-12-07T05:41:54.545Z,0.00
2022-12-07T05:42:54.529Z,0.00
2022-12-07T05:43:54.527Z,0.00
2022-12-07T05:44:54.507Z,0.00
2022-12-07T05:45:54.611Z,0.00
2022-12-07T05:46:54.487Z,0.00
2022-12-07T05:47:54.485Z,0.00
2022-12-07T05:48:54.470Z,0.00
2022-12-07T05:49:54.474Z,0.00
2022-12-07T05:50:54.442Z,0.00
2022-12-07T05:51:54.468Z,0.00
2022-12-07T05:52:54.434Z,0.00
2022-12-07T05:53:54.418Z,0.00
2022-12-07T05:54:54.397Z,0.00
2022-12-07T05:55:54.397Z,0.00
2022-12-07T05:56:54.412Z,0.00
2022-12-07T05:57:54.373Z,0.00
2022-12-07T05:58:54.355Z,0.00
2022-12-07T05:59:54.352Z,0.00
2022-12-07T06:00:54.332Z,0.00
2022-12-07T06:01:54.448Z,0.00
2022-12-07T06:02:54.475Z,0.00
2022-12-07T06:03:54.306Z,0.00
2022-12-07T06:04:54.293Z,0.00
2022-12-07T06:05:54.347Z,0.00
2022-12-07T06:06:54.271Z,0.00
2022-12-07T06:07:54.322Z,0.00
2022-12-07T06:08:54.250Z,0.00
2022-12-07T06:09:54.232Z,0.00
2022-12-07T06:10:54.229Z,0.00
2022-12-07T06:11:54.211Z,0.00
2022-12-07T06:12:54.240Z,0.00
2022-12-07T06:13:54.193Z,0.00
2022-12-07T06:14:54.189Z,0.00
2022-12-07T06:15:54.168Z,0.00
2022-12-07T06:16:54.206Z,0.00
2022-12-07T06:17:54.165Z,0.00
2022-12-07T06:18:54.150Z,0.00
2022-12-07T06:19:54.141Z,0.00
2022-12-07T06:20:54.160Z,0.00
2022-12-07T06:21:54.101Z,0.00
2022-12-07T06:22:54.117Z,0.00
2022-12-07T06:23:54.083Z,0.00
2022-12-07T06:24:54.079Z,0.00
2022-12-07T06:25:54.059Z,0.00
2022-12-07T06:26:54.055Z,0.00
2022-12-07T06:27:54.086Z,0.00
2022-12-07T06:28:54.027Z,0.00
2022-12-07T06:29:54.120Z,0.00
2022-12-07T06:30:54.005Z,0.00
2022-12-07T06:31:54.026Z,0.00
2022-12-07T06:32:54.009Z,0.00
2022-12-07T06:33:53.970Z,0.00
2022-12-07T06:34:53.963Z,0.00
2022-12-07T06:35:53.949Z,0.00
2022-12-07T06:36:53.941Z,0.00
2022-12-07T06:37:54.002Z,0.00
2022-12-07T06:38:53.936Z,0.00
2022-12-07T06:39:53.904Z,0.00
2022-12-07T06:40:53.901Z,0.00
2022-12-07T06:41:53.881Z,0.00
2022-12-07T06:42:53.894Z,0.00
2022-12-07T06:43:56.272Z,0.00
2022-12-07T06:44:53.851Z,0.00
2022-12-07T06:45:53.882Z,0.00
2022-12-07T06:47:06.717Z,0.00
2022-12-07T06:47:53.844Z,0.00
2022-12-07T06:48:53.807Z,0.00
2022-12-07T06:49:53.794Z,0.00
2022-12-07T06:50:55.325Z,0.00
2022-12-07T06:51:53.774Z,0.00
2022-12-07T06:52:53.783Z,0.00
2022-12-07T06:53:53.767Z,0.00
2022-12-07T06:54:53.745Z,0.00
2022-12-07T06:55:53.728Z,0.00
2022-12-07T06:56:53.722Z,0.00
2022-12-07T06:57:53.725Z,0.00
2022-12-07T06:58:53.697Z,0.00
2022-12-07T06:59:53.686Z,0.00
2022-12-07T07:00:53.729Z,0.00
2022-12-07T07:01:53.735Z,0.00
2022-12-07T07:02:53.730Z,0.00
2022-12-07T07:03:53.648Z,0.00
2022-12-07T07:04:53.642Z,0.00
2022-12-07T07:05:53.620Z,0.00
2022-12-07T07:06:59.622Z,0.00
2022-12-07T07:08:53.671Z,0.00
2022-12-07T07:09:53.574Z,0.00
2022-12-07T07:10:53.651Z,0.00
2022-12-07T07:11:53.588Z,0.00
2022-12-07T07:12:57.342Z,0.00
2022-12-07T07:13:53.530Z,0.00
2022-12-07T07:14:53.515Z,0.00
2022-12-07T07:15:53.511Z,0.00
2022-12-07T07:16:53.553Z,0.00
2022-12-07T07:17:53.514Z,0.00
2022-12-07T07:18:53.484Z,0.00
2022-12-07T07:19:53.471Z,0.00
2022-12-07T07:20:53.452Z,0.00
2022-12-07T07:21:53.511Z,0.00
2022-12-07T07:22:53.454Z,0.00
2022-12-07T07:23:53.427Z,0.00
2022-12-07T07:24:53.411Z,0.00
2022-12-07T07:25:53.413Z,0.00
2022-12-07T07:26:53.390Z,0.00
2022-12-07T07:27:53.403Z,0.00
2022-12-07T07:28:53.369Z,0.00
2022-12-07T07:29:53.357Z,0.00
2022-12-07T07:30:53.482Z,0.00
2022-12-07T07:31:53.347Z,0.00
2022-12-07T07:32:53.345Z,0.00
2022-12-07T07:33:53.349Z,5.62
2022-12-07T07:34:53.305Z,5.62
2022-12-07T07:35:53.287Z,5.62
2022-12-07T07:36:53.286Z,5.62
2022-12-07T07:37:53.295Z,5.62
2022-12-07T07:38:53.263Z,5.62
2022-12-07T07:39:53.244Z,5.62
2022-12-07T07:40:53.273Z,0.00
2022-12-07T07:41:53.220Z,0.00
2022-12-07T07:42:53.282Z,5.62
2022-12-07T07:43:53.199Z,5.62
2022-12-07T07:44:53.190Z,5.62
2022-12-07T07:45:53.199Z,11.25
2022-12-07T07:46:53.223Z,11.25
2022-12-07T07:47:53.188Z,11.25
2022-12-07T07:48:53.162Z,16.88
2022-12-07T07:49:53.182Z,16.88
2022-12-07T07:50:53.165Z,16.88
2022-12-07T07:51:53.111Z,16.88
2022-12-07T07:52:53.135Z,22.50
2022-12-07T07:53:53.093Z,22.50
2022-12-07T07:54:53.084Z,22.50
2022-12-07T07:55:53.068Z,22.50
2022-12-07T07:56:53.063Z,22.50
2022-12-07T07:57:55.039Z,22.50
2022-12-07T07:58:53.039Z,22.50
2022-12-07T07:59:53.025Z,28.12
2022-12-07T08:00:53.024Z,28.12
2022-12-07T08:01:53.087Z,28.12
2022-12-07T08:02:53.150Z,28.12
2022-12-07T08:03:53.001Z,28.12
2022-12-07T08:04:52.997Z,28.12
2022-12-07T08:05:52.959Z,28.12
2022-12-07T08:06:52.953Z,28.12
2022-12-07T08:07:53.037Z,33.75
2022-12-07T08:08:52.963Z,33.75
2022-12-07T08:09:52.918Z,33.75
2022-12-07T08:10:52.909Z,33.75
2022-12-07T08:11:52.893Z,33.75
2022-12-07T08:12:52.902Z,33.75
2022-12-07T08:13:52.875Z,33.75
2022-12-07T08:14:52.870Z,39.38
2022-12-07T08:15:52.907Z,39.38
2022-12-07T08:16:52.838Z,39.38
2022-12-07T08:17:52.862Z,39.38
2022-12-07T08:18:52.823Z,39.38
2022-12-07T08:19:52.817Z,45.00
2022-12-07T08:20:52.794Z,45.00
2022-12-07T08:21:52.788Z,45.00
2022-12-07T08:22:52.795Z,45.00
2022-12-07T08:23:52.768Z,45.00
2022-12-07T08:24:52.746Z,50.62
2022-12-07T08:25:52.741Z,50.62
2022-12-07T08:26:52.740Z,50.62
2022-12-07T08:27:52.747Z,50.62
2022-12-07T08:28:52.726Z,56.25
2022-12-07T08:29:52.703Z,56.25
2022-12-07T08:30:52.711Z,61.88
2022-12-07T08:31:52.677Z,61.88
2022-12-07T08:32:52.678Z,61.88
2022-12-07T08:33:52.652Z,61.88
2022-12-07T08:34:52.642Z,67.50
2022-12-07T08:35:52.630Z,67.50
2022-12-07T08:36:52.646Z,67.50
2022-12-07T08:37:52.645Z,67.50
2022-12-07T08:39:29.286Z,67.50
2022-12-07T08:39:52.600Z,67.50
2022-12-07T08:40:52.575Z,73.12
2022-12-07T08:41:52.613Z,78.75
2022-12-07T08:42:52.578Z,78.75
2022-12-07T08:43:52.546Z,78.75
2022-12-07T08:44:52.529Z,73.12
2022-12-07T08:45:52.537Z,84.38
2022-12-07T08:46:52.576Z,84.38
2022-12-07T08:47:52.529Z,84.38
2022-12-07T08:48:52.483Z,84.38
2022-12-07T08:49:52.477Z,78.75
2022-12-07T08:50:52.466Z,78.75
2022-12-07T08:51:52.452Z,73.12
2022-12-07T08:52:52.448Z,73.12
2022-12-07T08:53:52.459Z,73.12
2022-12-07T08:54:52.416Z,67.50
2022-12-07T08:55:52.411Z,73.12
2022-12-07T08:56:58.528Z,67.50
2022-12-07T08:57:52.420Z,67.50
2022-12-07T08:58:52.395Z,61.88
2022-12-07T08:59:52.364Z,61.88
2022-12-07T09:00:52.353Z,56.25
2022-12-07T09:01:52.376Z,61.88
2022-12-07T09:02:52.328Z,56.25
2022-12-07T09:03:52.351Z,61.88
2022-12-07T09:04:52.306Z,61.88
2022-12-07T09:05:52.479Z,56.25
2022-12-07T09:06:52.377Z,56.25
2022-12-07T09:07:52.328Z,61.88
2022-12-07T09:08:52.272Z,61.88
2022-12-07T09:09:52.271Z,67.50
2022-12-07T09:10:52.248Z,73.12
2022-12-07T09:11:52.239Z,73.12
2022-12-07T09:12:52.230Z,73.12
2022-12-07T09:13:52.207Z,73.12
2022-12-07T09:14:52.221Z,73.12
2022-12-07T09:15:52.309Z,73.12
2022-12-07T09:16:52.179Z,73.12
2022-12-07T09:17:52.161Z,73.12
2022-12-07T09:18:52.159Z,73.12
2022-12-07T09:19:52.141Z,73.12
2022-12-07T09:20:52.172Z,73.12
2022-12-07T09:21:52.117Z,78.75
2022-12-07T09:22:52.117Z,78.75
2022-12-07T09:23:52.096Z,90.00
2022-12-07T09:24:52.089Z,90.00
2022-12-07T09:25:52.076Z,90.00
2022-12-07T09:26:52.090Z,84.38
2022-12-07T09:27:52.050Z,78.75
2022-12-07T09:28:52.046Z,95.62
2022-12-07T09:29:52.034Z,78.75
2022-12-07T09:31:22.065Z,84.38
2022-12-07T09:31:52.148Z,84.38
2022-12-07T09:32:52.000Z,84.38
2022-12-07T09:33:52.058Z,90.00
2022-12-07T09:34:52.095Z,84.38
2022-12-07T09:35:51.965Z,95.62
2022-12-07T09:36:51.959Z,84.38
2022-12-07T09:37:51.965Z,84.38
2022-12-07T09:38:51.935Z,90.00
2022-12-07T09:39:51.918Z,95.62
2022-12-07T09:40:51.933Z,90.00
2022-12-07T09:41:51.898Z,78.75
2022-12-07T09:42:52.001Z,95.62
2022-12-07T09:43:51.874Z,95.62
2022-12-07T09:44:51.885Z,95.62
2022-12-07T09:45:51.849Z,101.25
2022-12-07T09:46:51.963Z,101.25
2022-12-07T09:47:51.851Z,129.38
2022-12-07T09:48:51.823Z,135.00
2022-12-07T09:49:51.822Z,151.88
2022-12-07T09:50:51.800Z,163.12
2022-12-07T09:51:51.794Z,151.88
2022-12-07T09:52:51.799Z,180.00
2022-12-07T09:53:51.762Z,174.38
2022-12-07T09:54:51.757Z,168.75
2022-12-07T09:55:51.744Z,196.88
2022-12-07T09:56:51.731Z,208.12
2022-12-07T09:57:51.739Z,157.50
2022-12-07T09:58:51.711Z,135.00
2022-12-07T09:59:51.694Z,146.25
2022-12-07T10:00:51.695Z,151.88
2022-12-07T10:01:51.735Z,168.75
2022-12-07T10:02:51.696Z,112.50
2022-12-07T10:03:51.653Z,129.38
2022-12-07T10:04:51.693Z,208.12
2022-12-07T10:05:51.628Z,106.88
2022-12-07T10:06:51.618Z,123.75
2022-12-07T10:07:51.768Z,281.25
2022-12-07T10:08:51.596Z,315.00
2022-12-07T10:09:51.590Z,309.38
2022-12-07T10:10:51.574Z,331.88
2022-12-07T10:11:51.564Z,309.38
2022-12-07T10:12:51.585Z,191.25
2022-12-07T10:13:51.545Z,106.88
2022-12-07T10:15:06.966Z,129.38
2022-12-07T10:15:51.602Z,163.12
2022-12-07T10:16:51.503Z,157.50
2022-12-07T10:17:51.524Z,168.75
2022-12-07T10:18:51.486Z,174.38
2022-12-07T10:19:51.487Z,151.88
2022-12-07T10:20:51.462Z,174.38
2022-12-07T10:21:51.457Z,163.12
2022-12-07T10:22:51.464Z,151.88
2022-12-07T10:23:51.435Z,129.38
2022-12-07T10:24:51.417Z,129.38
2022-12-07T10:25:51.412Z,123.75
2022-12-07T10:26:51.397Z,135.00
2022-12-07T10:27:51.413Z,135.00
2022-12-07T10:28:51.373Z,146.25
2022-12-07T10:29:51.367Z,185.62
2022-12-07T10:30:51.437Z,163.12
2022-12-07T10:31:51.404Z,174.38
2022-12-07T10:32:51.358Z,123.75
2022-12-07T10:33:51.321Z,106.88
2022-12-07T10:34:52.498Z,101.25
2022-12-07T10:35:51.302Z,101.25
2022-12-07T10:36:51.286Z,95.62
2022-12-07T10:37:51.303Z,95.62
2022-12-07T10:38:51.264Z,95.62
2022-12-07T10:39:51.256Z,90.00
2022-12-07T10:40:51.243Z,90.00
2022-12-07T10:41:51.234Z,95.62
2022-12-07T10:42:51.251Z,101.25
2022-12-07T10:43:51.209Z,106.88
2022-12-07T10:44:51.260Z,106.88
2022-12-07T10:46:03.406Z,106.88
2022-12-07T10:46:51.245Z,106.88
2022-12-07T10:47:51.189Z,112.50
2022-12-07T10:48:51.147Z,151.88
2022-12-07T10:49:51.149Z,118.12
2022-12-07T10:50:51.127Z,123.75
2022-12-07T10:51:51.171Z,123.75
2022-12-07T10:52:51.123Z,151.88
2022-12-07T10:53:51.098Z,146.25
2022-12-07T10:54:51.087Z,140.62
2022-12-07T10:55:51.076Z,135.00
2022-12-07T10:56:52.650Z,163.12
2022-12-07T10:57:51.081Z,146.25
2022-12-07T10:58:51.036Z,135.00
2022-12-07T10:59:51.034Z,146.25
2022-12-07T11:00:51.881Z,180.00
2022-12-07T11:01:51.113Z,151.88
2022-12-07T11:02:51.017Z,168.75
2022-12-07T11:03:50.989Z,185.62
2022-12-07T11:04:50.971Z,236.25
2022-12-07T11:05:50.967Z,236.25
2022-12-07T11:06:50.954Z,236.25
2022-12-07T11:07:56.660Z,163.12
2022-12-07T11:08:50.959Z,151.88
2022-12-07T11:10:50.920Z,230.62
2022-12-07T11:11:50.911Z,146.25
2022-12-07T11:12:50.924Z,157.50
2022-12-07T11:13:50.878Z,123.75
2022-12-07T11:14:50.879Z,118.12
2022-12-07T11:15:50.918Z,225.00
2022-12-07T11:16:50.935Z,241.88
2022-12-07T11:17:50.852Z,236.25
2022-12-07T11:18:50.823Z,241.88
2022-12-07T11:19:50.809Z,236.25
2022-12-07T11:20:50.801Z,241.88
2022-12-07T11:21:50.787Z,202.50
2022-12-07T11:22:50.806Z,202.50
2022-12-07T11:23:50.783Z,191.25
2022-12-07T11:24:50.762Z,191.25
2022-12-07T11:25:50.771Z,180.00
2022-12-07T11:26:50.735Z,163.12
2022-12-07T11:27:50.747Z,225.00
2022-12-07T11:28:50.714Z,236.25
2022-12-07T11:29:50.696Z,202.50
2022-12-07T11:30:50.708Z,213.75
2022-12-07T11:31:50.821Z,219.38
2022-12-07T11:32:50.720Z,213.75
2022-12-07T11:33:50.654Z,213.75
2022-12-07T11:34:50.647Z,213.75
2022-12-07T11:35:50.632Z,213.75
2022-12-07T11:36:50.622Z,208.12
2022-12-07T11:37:50.826Z,219.38
2022-12-07T11:38:50.603Z,213.75
2022-12-07T11:39:50.586Z,213.75
2022-12-07T11:40:50.581Z,213.75
2022-12-07T11:41:50.562Z,208.12
2022-12-07T11:42:50.599Z,208.12
2022-12-07T11:43:50.572Z,208.12
2022-12-07T11:44:50.589Z,213.75
2022-12-07T11:45:50.575Z,213.75
2022-12-07T11:46:50.577Z,219.38
2022-12-07T11:47:50.508Z,225.00
2022-12-07T11:48:50.485Z,230.62
2022-12-07T11:49:50.495Z,236.25
2022-12-07T11:50:50.462Z,241.88
2022-12-07T11:51:50.455Z,247.50
2022-12-07T11:52:50.443Z,247.50
2022-12-07T11:53:50.435Z,180.00
2022-12-07T11:54:50.437Z,157.50
2022-12-07T11:55:50.412Z,146.25
2022-12-07T11:56:50.416Z,157.50
2022-12-07T11:57:50.390Z,174.38
2022-12-07T11:58:50.383Z,180.00
2022-12-07T11:59:50.385Z,163.12
2022-12-07T12:00:50.358Z,151.88
2022-12-07T12:01:50.386Z,174.38
2022-12-07T12:02:50.356Z,185.62
2022-12-07T12:03:53.223Z,196.88
2022-12-07T12:04:50.329Z,191.25
2022-12-07T12:05:50.300Z,253.12
2022-12-07T12:06:50.479Z,230.62
2022-12-07T12:09:53.501Z,236.25
2022-12-07T12:10:50.244Z,180.00
2022-12-07T12:11:50.241Z,236.25
2022-12-07T12:14:50.211Z,225.00
2022-12-07T12:15:50.207Z,219.38
2022-12-07T12:16:50.217Z,219.38
2022-12-07T12:17:50.167Z,213.75
2022-12-07T12:18:50.165Z,208.12
2022-12-07T12:19:50.138Z,208.12
2022-12-07T12:20:50.133Z,208.12
2022-12-07T12:21:52.090Z,208.12
2022-12-07T12:22:50.124Z,208.12
2022-12-07T12:23:50.108Z,213.75
2022-12-07T12:24:50.086Z,219.38
2022-12-07T12:25:50.120Z,219.38
2022-12-07T12:26:50.086Z,219.38
2022-12-07T12:27:50.052Z,230.62
2022-12-07T12:28:50.471Z,219.38
2022-12-07T12:29:50.032Z,202.50
2022-12-07T12:30:50.022Z,196.88
2022-12-07T12:31:50.090Z,163.12
2022-12-07T12:32:49.996Z,118.12
2022-12-07T12:33:49.988Z,112.50
2022-12-07T12:34:50.672Z,106.88
2022-12-07T12:35:49.960Z,101.25
2022-12-07T12:36:50.075Z,101.25
2022-12-07T12:37:49.933Z,95.62
2022-12-07T12:38:49.933Z,95.62
2022-12-07T12:39:49.920Z,95.62
2022-12-07T12:40:51.300Z,90.00
2022-12-07T12:41:49.891Z,84.38
2022-12-07T12:42:49.914Z,90.00
2022-12-07T12:43:49.872Z,84.38
2022-12-07T12:44:49.867Z,78.75
2022-12-07T12:45:49.895Z,78.75
2022-12-07T12:46:50.578Z,78.75
2022-12-07T12:47:49.854Z,78.75
2022-12-07T12:48:49.827Z,84.38
2022-12-07T12:49:49.804Z,84.38
2022-12-07T12:50:49.799Z,84.38
2022-12-07T12:51:49.784Z,84.38
2022-12-07T12:52:50.811Z,84.38
2022-12-07T12:53:49.779Z,84.38
2022-12-07T12:54:49.754Z,84.38
2022-12-07T12:55:49.735Z,84.38
2022-12-07T12:56:49.733Z,84.38
2022-12-07T12:57:55.887Z,90.00
2022-12-07T12:58:49.752Z,90.00
2022-12-07T12:59:49.694Z,90.00
2022-12-07T13:00:49.730Z,95.62
2022-12-07T13:01:49.782Z,95.62
2022-12-07T13:02:49.718Z,123.75
2022-12-07T13:03:49.645Z,146.25
2022-12-07T13:04:49.694Z,135.00
2022-12-07T13:05:49.624Z,174.38
2022-12-07T13:06:49.624Z,180.00
2022-12-07T13:07:49.672Z,191.25
2022-12-07T13:08:49.604Z,196.88